ANZ36 YBBN-NZAA
Flight info
| Callsign | ANZ36 |
|---|---|
| Flight time | N/A |
| Altitude | 37000 |
| Route | SCOTT A464 UPLAR |
| Aircraft | B77W/H-SDE1E2E3FGHIJ2J3J4J5M1RWXY/LB1D1 |
Departure
| Time | N/A |
|---|---|
| Airport | Brisbane International Airport (YBBN) |
Arrival
| Time | 2026-05-03 20:58 |
|---|---|
| Airport | Auckland International Airport (NZAA) |
| Time | Latitude | Longitude | Altitude | Speed | Heading |
|---|---|---|---|---|---|
| 2026-05-03 20:15 | -35.26250 | 170.27889 | 37476 ft | 493 kts | 115° |
| 2026-05-03 20:15 | -35.29113 | 170.35495 | 37473 ft | 494 kts | 115° |
| 2026-05-03 20:16 | -35.31965 | 170.43092 | 37477 ft | 495 kts | 115° |
| 2026-05-03 20:16 | -35.34821 | 170.50720 | 37478 ft | 494 kts | 115° |
| 2026-05-03 20:17 | -35.37670 | 170.58344 | 37471 ft | 495 kts | 115° |
| 2026-05-03 20:17 | -35.40559 | 170.66097 | 37472 ft | 494 kts | 115° |
| 2026-05-03 20:18 | -35.43383 | 170.73691 | 37469 ft | 494 kts | 115° |
| 2026-05-03 20:18 | -35.46217 | 170.81331 | 37480 ft | 494 kts | 115° |
| 2026-05-03 20:19 | -35.49056 | 170.89004 | 37485 ft | 494 kts | 115° |
| 2026-05-03 20:19 | -35.51873 | 170.96635 | 37491 ft | 495 kts | 115° |
| 2026-05-03 20:20 | -35.54709 | 171.04336 | 37420 ft | 496 kts | 115° |
| 2026-05-03 20:20 | -35.56111 | 171.08164 | 37141 ft | 498 kts | 114° |
| 2026-05-03 20:20 | -35.57452 | 171.12089 | 36777 ft | 497 kts | 113° |
| 2026-05-03 20:20 | -35.58757 | 171.15999 | 36401 ft | 493 kts | 112° |
| 2026-05-03 20:21 | -35.60062 | 171.19920 | 36041 ft | 492 kts | 112° |
| 2026-05-03 20:21 | -35.61465 | 171.24142 | 35653 ft | 493 kts | 112° |
| 2026-05-03 20:21 | -35.62751 | 171.28020 | 35345 ft | 493 kts | 112° |
| 2026-05-03 20:21 | -35.64039 | 171.31906 | 35037 ft | 493 kts | 112° |
| 2026-05-03 20:22 | -35.65328 | 171.35803 | 34724 ft | 494 kts | 112° |
| 2026-05-03 20:22 | -35.66621 | 171.39716 | 34406 ft | 494 kts | 112° |
| 2026-05-03 20:22 | -35.67902 | 171.43600 | 34089 ft | 494 kts | 112° |
| 2026-05-03 20:22 | -35.69034 | 171.47035 | 33794 ft | 493 kts | 112° |
| 2026-05-03 20:23 | -35.70319 | 171.50940 | 33419 ft | 495 kts | 112° |
| 2026-05-03 20:23 | -35.71615 | 171.54883 | 33044 ft | 497 kts | 112° |
| 2026-05-03 20:23 | -35.72897 | 171.58791 | 32674 ft | 498 kts | 112° |
| 2026-05-03 20:23 | -35.74191 | 171.62740 | 32297 ft | 500 kts | 112° |
| 2026-05-03 20:24 | -35.75532 | 171.66835 | 31912 ft | 502 kts | 111° |
| 2026-05-03 20:24 | -35.76844 | 171.70850 | 31533 ft | 502 kts | 111° |
| 2026-05-03 20:24 | -35.78136 | 171.74806 | 31159 ft | 499 kts | 111° |
| 2026-05-03 20:24 | -35.79414 | 171.78729 | 30784 ft | 495 kts | 111° |
| 2026-05-03 20:25 | -35.80696 | 171.82665 | 30413 ft | 493 kts | 111° |
| 2026-05-03 20:25 | -35.81969 | 171.86580 | 30042 ft | 493 kts | 111° |
| 2026-05-03 20:25 | -35.83236 | 171.90485 | 29666 ft | 490 kts | 111° |
| 2026-05-03 20:25 | -35.84489 | 171.94347 | 29294 ft | 486 kts | 111° |
| 2026-05-03 20:26 | -35.85719 | 171.98148 | 28929 ft | 482 kts | 111° |
| 2026-05-03 20:26 | -35.86951 | 172.01958 | 28561 ft | 477 kts | 111° |
| 2026-05-03 20:26 | -35.88171 | 172.05733 | 28185 ft | 473 kts | 111° |
| 2026-05-03 20:26 | -35.89378 | 172.09476 | 27814 ft | 472 kts | 111° |
| 2026-05-03 20:27 | -35.90582 | 172.13209 | 27445 ft | 467 kts | 111° |
| 2026-05-03 20:27 | -35.91767 | 172.16893 | 27076 ft | 462 kts | 111° |
| 2026-05-03 20:27 | -35.92949 | 172.20570 | 26700 ft | 459 kts | 111° |
| 2026-05-03 20:27 | -35.94117 | 172.24210 | 26330 ft | 456 kts | 111° |
| 2026-05-03 20:28 | -35.95274 | 172.27817 | 25958 ft | 452 kts | 111° |
| 2026-05-03 20:28 | -35.96423 | 172.31407 | 25588 ft | 448 kts | 111° |
| 2026-05-03 20:28 | -35.97557 | 172.34952 | 25218 ft | 445 kts | 110° |
| 2026-05-03 20:28 | -35.98685 | 172.38484 | 24843 ft | 441 kts | 110° |
| 2026-05-03 20:29 | -35.99794 | 172.41959 | 24468 ft | 438 kts | 110° |
| 2026-05-03 20:29 | -36.00913 | 172.45468 | 24096 ft | 434 kts | 110° |
| 2026-05-03 20:29 | -36.01994 | 172.48865 | 23726 ft | 430 kts | 110° |
| 2026-05-03 20:29 | -36.03086 | 172.52300 | 23348 ft | 426 kts | 110° |
| 2026-05-03 20:30 | -36.04165 | 172.55698 | 22968 ft | 423 kts | 110° |
| 2026-05-03 20:30 | -36.05228 | 172.59047 | 22594 ft | 420 kts | 110° |
| 2026-05-03 20:30 | -36.06350 | 172.62589 | 22195 ft | 417 kts | 110° |
| 2026-05-03 20:30 | -36.07424 | 172.65984 | 21811 ft | 415 kts | 110° |
| 2026-05-03 20:31 | -36.08471 | 172.69298 | 21438 ft | 412 kts | 110° |
| 2026-05-03 20:31 | -36.09498 | 172.72549 | 21069 ft | 409 kts | 109° |
| 2026-05-03 20:31 | -36.10534 | 172.75836 | 20693 ft | 407 kts | 109° |
| 2026-05-03 20:31 | -36.11549 | 172.79057 | 20321 ft | 405 kts | 109° |
| 2026-05-03 20:32 | -36.12563 | 172.82280 | 19948 ft | 402 kts | 109° |
| 2026-05-03 20:32 | -36.13569 | 172.85480 | 19574 ft | 399 kts | 109° |
| 2026-05-03 20:32 | -36.14570 | 172.88666 | 19201 ft | 397 kts | 109° |
| 2026-05-03 20:32 | -36.15563 | 172.91834 | 18825 ft | 394 kts | 109° |
| 2026-05-03 20:33 | -36.16542 | 172.94960 | 18455 ft | 391 kts | 109° |
| 2026-05-03 20:33 | -36.17520 | 172.98086 | 18082 ft | 389 kts | 109° |
| 2026-05-03 20:33 | -36.18492 | 173.01195 | 17708 ft | 386 kts | 109° |
| 2026-05-03 20:33 | -36.19454 | 173.04274 | 17336 ft | 383 kts | 109° |
| 2026-05-03 20:34 | -36.20412 | 173.07346 | 16963 ft | 380 kts | 109° |
| 2026-05-03 20:34 | -36.21351 | 173.10358 | 16597 ft | 378 kts | 109° |
| 2026-05-03 20:34 | -36.22289 | 173.13373 | 16231 ft | 376 kts | 109° |
| 2026-05-03 20:34 | -36.23222 | 173.16371 | 15865 ft | 374 kts | 109° |
| 2026-05-03 20:35 | -36.24155 | 173.19377 | 15491 ft | 372 kts | 109° |
| 2026-05-03 20:35 | -36.25079 | 173.22354 | 15108 ft | 369 kts | 109° |
| 2026-05-03 20:35 | -36.25990 | 173.25290 | 14744 ft | 366 kts | 109° |
| 2026-05-03 20:35 | -36.26894 | 173.28210 | 14375 ft | 365 kts | 109° |
| 2026-05-03 20:36 | -36.27807 | 173.31161 | 14000 ft | 362 kts | 109° |
| 2026-05-03 20:36 | -36.28755 | 173.34230 | 13609 ft | 360 kts | 109° |
| 2026-05-03 20:36 | -36.29708 | 173.37317 | 13214 ft | 357 kts | 109° |
| 2026-05-03 20:36 | -36.30647 | 173.40363 | 12824 ft | 355 kts | 109° |
| 2026-05-03 20:37 | -36.31578 | 173.43385 | 12432 ft | 352 kts | 109° |
| 2026-05-03 20:37 | -36.32495 | 173.46362 | 12044 ft | 350 kts | 109° |
| 2026-05-03 20:37 | -36.33398 | 173.49300 | 11652 ft | 347 kts | 109° |
| 2026-05-03 20:37 | -36.34304 | 173.52251 | 11264 ft | 345 kts | 109° |
| 2026-05-03 20:38 | -36.35194 | 173.55151 | 10878 ft | 343 kts | 109° |
| 2026-05-03 20:38 | -36.36053 | 173.57954 | 10494 ft | 340 kts | 109° |
| 2026-05-03 20:38 | -36.36879 | 173.60654 | 10137 ft | 337 kts | 109° |
| 2026-05-03 20:38 | -36.37710 | 173.63371 | 10012 ft | 335 kts | 109° |
| 2026-05-03 20:39 | -36.38531 | 173.66054 | 10007 ft | 336 kts | 109° |
| 2026-05-03 20:39 | -36.39497 | 173.68718 | 10004 ft | 338 kts | 117° |
| 2026-05-03 20:39 | -36.40806 | 173.71130 | 10009 ft | 338 kts | 126° |
| 2026-05-03 20:39 | -36.42385 | 173.73206 | 10004 ft | 321 kts | 133° |
| 2026-05-03 20:40 | -36.43971 | 173.75069 | 10010 ft | 310 kts | 133° |
| 2026-05-03 20:40 | -36.45522 | 173.76907 | 9946 ft | 309 kts | 133° |
| 2026-05-03 20:40 | -36.47054 | 173.78752 | 9730 ft | 307 kts | 133° |
| 2026-05-03 20:40 | -36.48571 | 173.80592 | 9558 ft | 304 kts | 133° |
| 2026-05-03 20:41 | -36.50089 | 173.82437 | 9387 ft | 304 kts | 133° |
| 2026-05-03 20:41 | -36.51597 | 173.84271 | 9218 ft | 303 kts | 133° |
| 2026-05-03 20:41 | -36.53093 | 173.86093 | 9046 ft | 302 kts | 133° |
| 2026-05-03 20:41 | -36.54594 | 173.87923 | 8873 ft | 301 kts | 133° |
| 2026-05-03 20:42 | -36.56094 | 173.89751 | 8702 ft | 301 kts | 133° |
| 2026-05-03 20:42 | -36.57573 | 173.91554 | 8533 ft | 300 kts | 133° |
| 2026-05-03 20:42 | -36.59057 | 173.93365 | 8362 ft | 300 kts | 133° |
| 2026-05-03 20:42 | -36.60560 | 173.95201 | 8186 ft | 299 kts | 133° |
| 2026-05-03 20:43 | -36.62038 | 173.97006 | 8016 ft | 299 kts | 133° |
| 2026-05-03 20:43 | -36.63520 | 173.98819 | 7844 ft | 298 kts | 133° |
| 2026-05-03 20:43 | -36.64999 | 174.00629 | 7671 ft | 297 kts | 133° |
| 2026-05-03 20:43 | -36.66469 | 174.02428 | 7497 ft | 297 kts | 133° |
| 2026-05-03 20:44 | -36.67936 | 174.04224 | 7323 ft | 296 kts | 133° |
| 2026-05-03 20:44 | -36.69408 | 174.06029 | 7151 ft | 296 kts | 133° |
| 2026-05-03 20:44 | -36.70870 | 174.07820 | 6977 ft | 295 kts | 133° |
| 2026-05-03 20:44 | -36.72320 | 174.09599 | 6804 ft | 294 kts | 133° |
| 2026-05-03 20:45 | -36.73777 | 174.11388 | 6632 ft | 294 kts | 133° |
| 2026-05-03 20:45 | -36.75228 | 174.13170 | 6456 ft | 287 kts | 133° |
| 2026-05-03 20:45 | -36.76623 | 174.14883 | 6283 ft | 278 kts | 133° |
| 2026-05-03 20:45 | -36.77986 | 174.16559 | 6110 ft | 269 kts | 133° |
| 2026-05-03 20:46 | -36.79292 | 174.18164 | 5940 ft | 261 kts | 133° |
| 2026-05-03 20:46 | -36.80563 | 174.19730 | 5770 ft | 254 kts | 133° |
| 2026-05-03 20:46 | -36.81810 | 174.21265 | 5596 ft | 247 kts | 133° |
| 2026-05-03 20:46 | -36.83005 | 174.22737 | 5462 ft | 239 kts | 133° |
| 2026-05-03 20:47 | -36.84172 | 174.24175 | 5345 ft | 230 kts | 133° |
| 2026-05-03 20:47 | -36.85292 | 174.25557 | 5214 ft | 221 kts | 133° |
| 2026-05-03 20:47 | -36.86367 | 174.26883 | 5092 ft | 216 kts | 133° |
| 2026-05-03 20:47 | -36.87435 | 174.28203 | 4966 ft | 216 kts | 133° |
| 2026-05-03 20:48 | -36.88498 | 174.29515 | 4842 ft | 215 kts | 133° |
| 2026-05-03 20:48 | -36.89566 | 174.30833 | 4719 ft | 215 kts | 133° |
| 2026-05-03 20:48 | -36.90627 | 174.32146 | 4595 ft | 215 kts | 133° |
| 2026-05-03 20:48 | -36.91688 | 174.33456 | 4469 ft | 215 kts | 133° |
| 2026-05-03 20:49 | -36.92742 | 174.34760 | 4345 ft | 214 kts | 133° |
| 2026-05-03 20:49 | -36.93811 | 174.36083 | 4217 ft | 214 kts | 133° |
| 2026-05-03 20:49 | -36.94857 | 174.37378 | 4093 ft | 214 kts | 133° |
| 2026-05-03 20:49 | -36.95923 | 174.38698 | 4004 ft | 213 kts | 133° |
| 2026-05-03 20:50 | -36.96970 | 174.39995 | 3996 ft | 214 kts | 133° |
| 2026-05-03 20:50 | -36.98043 | 174.41325 | 3996 ft | 214 kts | 133° |
| 2026-05-03 20:50 | -36.99105 | 174.42641 | 3998 ft | 215 kts | 133° |
| 2026-05-03 20:50 | -37.00158 | 174.43947 | 3996 ft | 209 kts | 133° |
| 2026-05-03 20:51 | -37.01156 | 174.45184 | 3989 ft | 195 kts | 133° |
| 2026-05-03 20:51 | -37.02106 | 174.46365 | 3792 ft | 192 kts | 133° |
| 2026-05-03 20:51 | -37.03050 | 174.47539 | 3549 ft | 189 kts | 133° |
| 2026-05-03 20:51 | -37.03970 | 174.48680 | 3301 ft | 185 kts | 133° |
| 2026-05-03 20:52 | -37.04876 | 174.49806 | 3062 ft | 182 kts | 133° |
| 2026-05-03 20:52 | -37.05762 | 174.50909 | 3009 ft | 182 kts | 133° |
| 2026-05-03 20:52 | -37.06674 | 174.52043 | 3001 ft | 183 kts | 133° |
| 2026-05-03 20:52 | -37.07486 | 174.53252 | 2999 ft | 180 kts | 118° |
| 2026-05-03 20:53 | -37.07763 | 174.54738 | 2983 ft | 178 kts | 82° |
| 2026-05-03 20:53 | -37.07429 | 174.56227 | 2969 ft | 178 kts | 70° |
| 2026-05-03 20:53 | -37.07005 | 174.57677 | 2809 ft | 178 kts | 70° |
| 2026-05-03 20:53 | -37.06594 | 174.59122 | 2633 ft | 173 kts | 70° |
| 2026-05-03 20:54 | -37.06198 | 174.60551 | 2461 ft | 176 kts | 70° |
| 2026-05-03 20:54 | -37.05437 | 174.63306 | 2089 ft | 155 kts | 70° |
| 2026-05-03 20:54 | -37.05098 | 174.64534 | 2016 ft | 146 kts | 70° |
| 2026-05-03 20:55 | -37.04773 | 174.65720 | 1895 ft | 146 kts | 70° |
| 2026-05-03 20:55 | -37.04448 | 174.66910 | 1710 ft | 142 kts | 70° |
| 2026-05-03 20:55 | -37.04125 | 174.68077 | 1527 ft | 142 kts | 70° |
| 2026-05-03 20:55 | -37.03793 | 174.69232 | 1377 ft | 141 kts | 69° |
| 2026-05-03 20:56 | -37.03456 | 174.70386 | 1251 ft | 144 kts | 70° |
| 2026-05-03 20:56 | -37.03135 | 174.71597 | 1142 ft | 148 kts | 71° |
| 2026-05-03 20:56 | -37.02792 | 174.72800 | 912 ft | 146 kts | 71° |
| 2026-05-03 20:56 | -37.02465 | 174.73987 | 630 ft | 142 kts | 70° |
| 2026-05-03 20:57 | -37.02148 | 174.75168 | 408 ft | 144 kts | 71° |
| 2026-05-03 20:57 | -37.01831 | 174.76346 | 189 ft | 142 kts | 72° |
| 2026-05-03 20:57 | -37.01514 | 174.77492 | 34 ft | 131 kts | 72° |
| 2026-05-03 20:57 | -37.01262 | 174.78430 | 31 ft | 94 kts | 70° |
| 2026-05-03 20:58 | -37.01092 | 174.79033 | 33 ft | 57 kts | 71° |
| 2026-05-03 20:58 | -37.00985 | 174.79413 | 35 ft | 35 kts | 69° |
| 2026-05-03 20:58 | -37.00872 | 174.79628 | 38 ft | 22 kts | 44° |
| 2026-05-03 20:58 | -37.00787 | 174.79717 | 40 ft | 9 kts | 33° |
| 2026-05-03 20:59 | -37.00729 | 174.79707 | 41 ft | 9 kts | 296° |
| 2026-05-03 20:59 | -37.00747 | 174.79590 | 38 ft | 17 kts | 251° |
| 2026-05-03 20:59 | -37.00790 | 174.79425 | 37 ft | 22 kts | 251° |
| 2026-05-03 20:59 | -37.00840 | 174.79242 | 36 ft | 20 kts | 250° |
| 2026-05-03 21:00 | -37.00885 | 174.79085 | 37 ft | 19 kts | 251° |
| 2026-05-03 21:00 | -37.00915 | 174.78970 | 36 ft | 21 kts | 251° |
| 2026-05-03 21:00 | -37.00985 | 174.78719 | 32 ft | 19 kts | 251° |
| 2026-05-03 21:00 | -37.01019 | 174.78593 | 31 ft | 14 kts | 248° |
| 2026-05-03 21:01 | -37.01049 | 174.78493 | 31 ft | 10 kts | 253° |
| 2026-05-03 21:01 | -37.01032 | 174.78418 | 31 ft | 9 kts | 320° |
| 2026-05-03 21:01 | -37.00972 | 174.78389 | 32 ft | 10 kts | 349° |
| 2026-05-03 21:01 | -37.00898 | 174.78374 | 33 ft | 11 kts | 352° |
| 2026-05-03 21:02 | -37.00830 | 174.78374 | 35 ft | 8 kts | 359° |
| 2026-05-03 21:02 | -37.00788 | 174.78332 | 36 ft | 9 kts | 301° |
| 2026-05-03 21:02 | -37.00764 | 174.78279 | 37 ft | 4 kts | 299° |
| 2026-05-03 21:02 | -37.00763 | 174.78278 | 37 ft | 0 kts | 299° |